Accueil
METAR-TAF:

METAR-TAF

Aéroports :

Aéroport international de Toncontín

Tegucigalpa, Honduras

latitude: 14-03N, longitude: 087-13W, altitude: 994 m

Observation

Le bulletin a été fait il y a 28 minutes, à 13:00 UTC
Vent calme
Température 15°C
Humidité 94%
Pression 1018 hPa
Visibilité: 8000 m
Quelques nuages à une hauteur de 2600 ft

METAR: MHTG 161300Z 00000KT 8000 FEW026 15/14 Q1018 A3006 NOSIG

Heure: 07:28 (13:28 UTC)

Prévision

Le bulletin a été fait il y a 3 heures et 4 minutes, à 10:24 UTC
Prévision valable du 16 à 12 UTC au 17 à 12 UTC
Vent kt de nord
Visibilité 10 km ou plus
Nuages épars à une hauteur de 2600 ft
Evoluant progressivement
du 16 à 16 UTC au 16 à 18 UTC
Vent 4 kt de sud
Evoluant progressivement
du 17 à 03 UTC au 17 à 05 UTC
Quelques nuages à une hauteur de 3000 ft

TAF: MHTG 161024Z 1612/1712 00000KT 9999 SCT026 TX31/1621Z TN17/1612Z BECMG 1616/1618 19004KT BECMG 1703/1705 FEW030

Observations et prévisions météorologiques de plus de 4000 aéroports (messages METAR et TAF).

Les stations disponibles sont représentées par des disques jaunes et rouges sur la carte.

Passer la souris dessus pour voir le nom de la station.

Cliquer dessus pour voir les observations et prévisions météorologiques.

Pour changer de carte: cliquez sur les boutons verts avec une croix noire pour zoomer, sur le bouton vert avec un tiret pour effectuer un zoom arrière, ou sur les flèches vertes pour les cartes adjacentes.


METAR-TAF: